Time;durP1;ratioP1;P1;durP2;ratioP2;P2;SDS_P1;SDS_P2;PMS_P1;PMS_P2;Temp;Humidity;BMP_temperature;BMP_pressure;BME280_temperature;BME280_humidity;BME280_pressure;Samples;Min_cycle;Max_cycle;Signal;HPM_P1;HPM_P2
2022/04/16 00:00:06;;;;;;;;;;;16.00;90.40;;;;;;702486;28;1042;-38
2022/04/16 00:00:47;;;;;;;;;;;16.00;90.40;;;;;;702463;28;2105;-37
2022/04/16 00:01:08;;;;;;;;;;;16.00;90.40;;;;;;702414;28;1123;-37
2022/04/16 00:01:29;;;;;;;;;;;16.00;90.30;;;;;;702100;28;1047;-37
2022/04/16 00:01:52;;;;;;;;;;;16.00;90.30;;;;;;699800;28;1055;-37
2022/04/16 00:02:13;;;;;;;;;;;16.00;90.30;;;;;;699827;28;983;-37
2022/04/16 00:02:33;;;;;;;;;;;16.00;90.30;;;;;;699780;28;1007;-37
2022/04/16 00:02:54;;;;;;;;;;;16.00;90.20;;;;;;699907;28;1011;-37
2022/04/16 00:03:15;;;;;;;;;;;16.00;90.20;;;;;;699815;28;1079;-37
2022/04/16 00:03:36;;;;;;;;;;;16.00;90.30;;;;;;699875;28;969;-37
2022/04/16 00:03:57;;;;;;;;;;;16.00;90.20;;;;;;699843;28;1111;-38
2022/04/16 00:04:17;;;;;;;;;;;16.00;90.20;;;;;;699895;28;1086;-37
2022/04/16 00:04:41;;;;;;;;;;;16.00;90.10;;;;;;699712;28;1097;-37
2022/04/16 00:05:02;;;;;;;;;;;16.00;90.20;;;;;;699916;28;1310;-37
2022/04/16 00:05:23;;;;;;;;;;;16.00;90.20;;;;;;699825;28;1078;-38
2022/04/16 00:05:44;;;;;;;;;;;15.90;90.30;;;;;;699921;28;1061;-38
2022/04/16 00:06:05;;;;;;;;;;;15.90;90.40;;;;;;699921;28;986;-38
2022/04/16 00:06:26;;;;;;;;;;;15.90;90.40;;;;;;699826;28;1082;-37
2022/04/16 00:06:47;;;;;;;;;;;15.90;90.40;;;;;;699684;28;980;-37
2022/04/16 00:07:07;;;;;;;;;;;15.90;90.40;;;;;;699985;28;976;-37
2022/04/16 00:07:28;;;;;;;;;;;15.90;90.40;;;;;;699891;28;1012;-37
2022/04/16 00:08:06;;;;;;;;;;;15.90;90.30;;;;;;699858;28;1070;-37
2022/04/16 00:08:27;;;;;;;;;;;15.90;90.40;;;;;;699944;28;1070;-37
2022/04/16 00:08:48;;;;;;;;;;;15.90;90.30;;;;;;699853;28;1067;-37
2022/04/16 00:09:08;;;;;;;;;;;15.90;90.40;;;;;;699871;28;1048;-37
2022/04/16 00:09:29;;;;;;;;;;;15.90;90.40;;;;;;699968;28;976;-37
2022/04/16 00:09:50;;;;;;;;;;;15.90;90.40;;;;;;699526;28;1039;-37
2022/04/16 00:10:11;;;;;;;;;;;15.90;90.40;;;;;;699730;28;1031;-37
2022/04/16 00:10:35;;;;;;;;;;;15.90;90.40;;;;;;699646;28;1062;-38
2022/04/16 00:10:56;;;;;;;;;;;15.90;90.30;;;;;;699747;28;1050;-37
2022/04/16 00:11:17;;;;;;;;;;;15.90;90.30;;;;;;699614;28;1081;-37
2022/04/16 00:11:38;;;;;;;;;;;15.90;90.60;;;;;;699793;28;998;-37
2022/04/16 00:11:59;;;;;;;;;;;15.90;90.30;;;;;;699768;28;976;-37
2022/04/16 00:12:20;;;;;;;;;;;15.90;90.30;;;;;;699935;28;1058;-37
2022/04/16 00:12:42;;;;;;;;;;;15.90;90.30;;;;;;699961;28;1024;-37
2022/04/16 00:13:02;;;;;;;;;;;15.90;90.30;;;;;;699438;28;1007;-37
2022/04/16 00:13:23;;;;;;;;;;;15.90;90.20;;;;;;699464;28;1080;-37
2022/04/16 00:13:46;;;;;;;;;;;15.90;90.20;;;;;;699615;28;1003;-37
2022/04/16 00:14:06;;;;;;;;;;;15.90;90.30;;;;;;699545;28;1001;-37
2022/04/16 00:14:27;;;;;;;;;;;15.90;90.20;;;;;;699485;28;1021;-37
2022/04/16 00:14:49;;;;;;;;;;;15.90;90.30;;;;;;697526;28;989;-38
2022/04/16 00:15:11;;;;;;;;;;;15.90;90.30;;;;;;699673;28;1082;-37
2022/04/16 00:15:32;;;;;;;;;;;15.90;90.30;;;;;;699588;28;1039;-37
2022/04/16 00:15:52;;;;;;;;;;;15.90;90.20;;;;;;699680;28;1066;-37
2022/04/16 00:16:14;;;;;;;;;;;15.90;90.30;;;;;;699544;28;1011;-37
2022/04/16 00:16:34;;;;;;;;;;;15.90;90.30;;;;;;699722;28;1101;-38
2022/04/16 00:16:55;;;;;;;;;;;15.90;90.30;;;;;;699842;28;1059;-38
2022/04/16 00:17:16;;;;;;;;;;;15.90;90.30;;;;;;699824;28;1082;-38
2022/04/16 00:17:37;;;;;;;;;;;15.90;90.20;;;;;;699926;28;797;-37
2022/04/16 00:17:58;;;;;;;;;;;15.90;90.30;;;;;;699924;28;1015;-37
2022/04/16 00:18:19;;;;;;;;;;;15.90;90.30;;;;;;699800;28;1078;-37
2022/04/16 00:18:39;;;;;;;;;;;15.90;90.30;;;;;;700254;28;1253;-38
2022/04/16 00:19:00;;;;;;;;;;;15.90;90.30;;;;;;700320;28;1054;-37
2022/04/16 00:19:23;;;;;;;;;;;15.90;90.30;;;;;;700481;28;987;-38
2022/04/16 00:19:43;;;;;;;;;;;15.90;90.30;;;;;;700495;28;987;-37
2022/04/16 00:20:09;;;;;;;;;;;15.90;90.30;;;;;;700372;28;1078;-37
2022/04/16 00:20:33;;;;;;;;;;;15.90;90.30;;;;;;700356;28;1971;-38
2022/04/16 00:20:53;;;;;;;;;;;15.90;90.20;;;;;;700399;28;1089;-37
2022/04/16 00:21:14;;;;;;;;;;;15.90;90.30;;;;;;700010;28;983;-38
2022/04/16 00:21:38;;;;;;;;;;;15.80;90.20;;;;;;694582;28;1046;-38
2022/04/16 00:22:07;;;;;;;;;;;15.80;90.30;;;;;;694638;28;1059;-38
2022/04/16 00:22:28;;;;;;;;;;;15.90;90.20;;;;;;694504;28;1038;-37
2022/04/16 00:22:49;;;;;;;;;;;15.80;90.30;;;;;;694703;28;1051;-37
2022/04/16 00:23:09;;;;;;;;;;;15.80;90.30;;;;;;696376;28;1043;-37
2022/04/16 00:23:30;;;;;;;;;;;15.80;90.30;;;;;;699506;28;1072;-37
2022/04/16 00:23:51;;;;;;;;;;;15.80;90.50;;;;;;700355;28;1080;-38
2022/04/16 00:24:13;;;;;;;;;;;15.80;90.20;;;;;;700377;28;1019;-37
2022/04/16 00:24:34;;;;;;;;;;;15.80;90.30;;;;;;700356;28;1033;-37
2022/04/16 00:24:54;;;;;;;;;;;15.80;90.30;;;;;;700425;28;1054;-37
2022/04/16 00:25:16;;;;;;;;;;;15.70;90.30;;;;;;700290;28;1047;-37
2022/04/16 00:25:37;;;;;;;;;;;15.70;90.30;;;;;;700407;28;1026;-37
2022/04/16 00:25:58;;;;;;;;;;;15.70;90.60;;;;;;700406;28;1072;-37
2022/04/16 00:26:20;;;;;;;;;;;15.80;90.40;;;;;;700419;28;995;-37
2022/04/16 00:26:41;;;;;;;;;;;15.80;90.30;;;;;;700403;28;982;-37
2022/04/16 00:27:02;;;;;;;;;;;15.80;90.30;;;;;;700327;28;1034;-37
2022/04/16 00:27:24;;;;;;;;;;;15.80;90.20;;;;;;700312;28;1023;-38
2022/04/16 00:27:46;;;;;;;;;;;15.80;90.30;;;;;;700330;28;1009;-37
2022/04/16 00:28:08;;;;;;;;;;;15.80;90.20;;;;;;700421;28;1037;-37
2022/04/16 00:28:30;;;;;;;;;;;15.80;90.10;;;;;;700382;28;999;-37
2022/04/16 00:28:50;;;;;;;;;;;15.80;90.10;;;;;;700338;28;1009;-37
2022/04/16 00:29:12;;;;;;;;;;;15.80;90.20;;;;;;700428;28;960;-37
2022/04/16 00:29:34;;;;;;;;;;;15.80;90.20;;;;;;700272;28;1007;-37
2022/04/16 00:29:55;;;;;;;;;;;15.80;90.20;;;;;;700368;28;962;-37
2022/04/16 00:30:17;;;;;;;;;;;15.80;90.20;;;;;;700408;28;1006;-37
2022/04/16 00:30:39;;;;;;;;;;;15.80;90.20;;;;;;700342;28;1328;-37
2022/04/16 00:31:00;;;;;;;;;;;15.80;90.20;;;;;;697309;28;980;-38
2022/04/16 00:31:21;;;;;;;;;;;15.80;90.20;;;;;;697423;28;1090;-37
2022/04/16 00:31:42;;;;;;;;;;;15.80;90.20;;;;;;697382;28;1042;-37
2022/04/16 00:32:05;;;;;;;;;;;15.70;90.10;;;;;;697366;28;1102;-37
2022/04/16 00:32:26;;;;;;;;;;;15.80;90.20;;;;;;697411;28;1018;-37
2022/04/16 00:32:47;;;;;;;;;;;15.80;90.20;;;;;;698501;28;1109;-37
2022/04/16 00:33:08;;;;;;;;;;;15.80;90.20;;;;;;700198;28;1075;-37
2022/04/16 00:33:30;;;;;;;;;;;15.80;90.40;;;;;;700428;28;982;-38
2022/04/16 00:33:52;;;;;;;;;;;15.80;90.10;;;;;;700390;28;1046;-37
2022/04/16 00:34:14;;;;;;;;;;;15.80;90.10;;;;;;700305;28;981;-37
2022/04/16 00:34:35;;;;;;;;;;;15.80;90.20;;;;;;700406;28;1011;-38
2022/04/16 00:34:56;;;;;;;;;;;15.80;90.10;;;;;;700390;28;988;-37
2022/04/16 00:35:17;;;;;;;;;;;15.80;90.10;;;;;;700402;28;975;-37
2022/04/16 00:35:37;;;;;;;;;;;15.80;90.10;;;;;;699979;28;1476;-37
2022/04/16 00:35:58;;;;;;;;;;;15.80;90.10;;;;;;697336;28;1015;-37
2022/04/16 00:36:19;;;;;;;;;;;15.80;90.10;;;;;;697447;28;1041;-37
2022/04/16 00:36:41;;;;;;;;;;;15.80;90.40;;;;;;697409;28;1074;-37
2022/04/16 00:37:02;;;;;;;;;;;15.80;90.10;;;;;;697407;28;1049;-37
2022/04/16 00:37:22;;;;;;;;;;;15.80;90.10;;;;;;697994;28;1073;-37
2022/04/16 00:37:43;;;;;;;;;;;15.80;90.00;;;;;;700083;28;1044;-37
2022/04/16 00:38:04;;;;;;;;;;;15.80;90.10;;;;;;700178;28;1043;-37
2022/04/16 00:38:25;;;;;;;;;;;15.80;90.10;;;;;;700216;28;800;-37
2022/04/16 00:38:45;;;;;;;;;;;15.80;90.10;;;;;;700123;28;1096;-37
2022/04/16 00:39:06;;;;;;;;;;;15.90;90.10;;;;;;700200;28;962;-38
2022/04/16 00:39:27;;;;;;;;;;;15.90;90.10;;;;;;700114;28;1108;-37
2022/04/16 00:39:48;;;;;;;;;;;15.90;90.00;;;;;;699977;28;1031;-37
2022/04/16 00:40:09;;;;;;;;;;;15.90;90.00;;;;;;697562;28;1019;-38
2022/04/16 00:40:29;;;;;;;;;;;15.90;90.10;;;;;;699986;28;2000;-37
2022/04/16 00:40:52;;;;;;;;;;;15.90;90.00;;;;;;700049;28;1077;-37
2022/04/16 00:41:13;;;;;;;;;;;15.90;90.10;;;;;;699908;28;1048;-37
2022/04/16 00:41:33;;;;;;;;;;;15.90;90.00;;;;;;700005;28;1096;-37
2022/04/16 00:41:54;;;;;;;;;;;15.90;90.00;;;;;;700028;28;1042;-37
2022/04/16 00:42:15;;;;;;;;;;;15.90;90.00;;;;;;700339;28;974;-37
2022/04/16 00:42:39;;;;;;;;;;;15.90;90.00;;;;;;700452;28;1072;-37
2022/04/16 00:43:00;;;;;;;;;;;15.90;90.10;;;;;;700001;28;1042;-37
2022/04/16 00:43:24;;;;;;;;;;;15.80;90.00;;;;;;700147;28;1062;-37
2022/04/16 00:43:45;;;;;;;;;;;15.80;90.00;;;;;;700030;28;999;-37
2022/04/16 00:44:06;;;;;;;;;;;15.80;90.10;;;;;;700110;28;807;-37
2022/04/16 00:44:27;;;;;;;;;;;15.80;90.30;;;;;;700087;28;1116;-37
2022/04/16 00:44:47;;;;;;;;;;;15.80;90.00;;;;;;700310;28;968;-37
2022/04/16 00:45:08;;;;;;;;;;;15.90;90.00;;;;;;700270;28;1104;-37
2022/04/16 00:45:30;;;;;;;;;;;15.90;90.00;;;;;;700410;28;1015;-38
2022/04/16 00:45:50;;;;;;;;;;;15.80;90.00;;;;;;700305;28;1370;-37
2022/04/16 00:46:11;;;;;;;;;;;15.80;90.00;;;;;;700259;28;964;-37
2022/04/16 00:46:32;;;;;;;;;;;15.80;90.00;;;;;;700356;28;989;-37
2022/04/16 00:46:53;;;;;;;;;;;15.80;90.00;;;;;;700369;28;971;-38
2022/04/16 00:47:14;;;;;;;;;;;15.80;90.00;;;;;;700297;28;1020;-37
2022/04/16 00:47:36;;;;;;;;;;;15.80;90.00;;;;;;700261;28;1022;-37
2022/04/16 00:47:57;;;;;;;;;;;15.80;90.10;;;;;;700393;28;1009;-37
2022/04/16 00:48:18;;;;;;;;;;;15.80;90.10;;;;;;700004;28;1081;-37
2022/04/16 00:48:39;;;;;;;;;;;15.80;90.10;;;;;;700135;28;1034;-37
2022/04/16 00:49:00;;;;;;;;;;;15.80;90.10;;;;;;700216;28;1102;-38
2022/04/16 00:49:21;;;;;;;;;;;15.80;90.10;;;;;;700076;28;977;-37
2022/04/16 00:49:42;;;;;;;;;;;15.80;90.00;;;;;;700102;28;1090;-37
2022/04/16 00:50:04;;;;;;;;;;;15.80;90.10;;;;;;700199;28;1941;-37
2022/04/16 00:50:25;;;;;;;;;;;15.80;90.00;;;;;;700246;28;1009;-38
2022/04/16 00:50:47;;;;;;;;;;;15.80;90.10;;;;;;700386;28;1054;-38
2022/04/16 00:51:08;;;;;;;;;;;15.80;90.00;;;;;;700206;28;992;-37
2022/04/16 00:51:29;;;;;;;;;;;15.80;90.00;;;;;;700353;28;1101;-37
2022/04/16 00:51:50;;;;;;;;;;;15.80;90.00;;;;;;700191;28;1420;-37
2022/04/16 00:52:11;;;;;;;;;;;15.80;90.00;;;;;;700237;28;991;-37
2022/04/16 00:52:32;;;;;;;;;;;15.80;90.10;;;;;;700300;28;975;-37
2022/04/16 00:52:53;;;;;;;;;;;15.80;90.10;;;;;;700374;28;1051;-37
2022/04/16 00:53:13;;;;;;;;;;;15.80;90.00;;;;;;700274;28;1025;-37
2022/04/16 00:53:34;;;;;;;;;;;15.80;90.00;;;;;;700029;28;1067;-37
2022/04/16 00:53:55;;;;;;;;;;;15.80;90.10;;;;;;700099;28;1509;-37
2022/04/16 00:54:16;;;;;;;;;;;15.80;90.00;;;;;;700073;28;931;-37
2022/04/16 00:54:37;;;;;;;;;;;15.70;90.00;;;;;;700019;28;958;-38
2022/04/16 00:54:58;;;;;;;;;;;15.80;90.00;;;;;;697344;28;1030;-37
2022/04/16 00:55:19;;;;;;;;;;;15.70;90.10;;;;;;697818;28;1121;-37
2022/04/16 00:55:40;;;;;;;;;;;15.80;90.10;;;;;;700194;28;1056;-37
2022/04/16 00:56:01;;;;;;;;;;;15.80;90.10;;;;;;700191;28;1003;-37
2022/04/16 00:56:21;;;;;;;;;;;15.80;90.10;;;;;;702771;28;1296;-37
2022/04/16 00:56:44;;;;;;;;;;;15.80;90.10;;;;;;702802;28;1049;-37
2022/04/16 00:57:05;;;;;;;;;;;15.80;90.10;;;;;;701948;28;1031;-37
2022/04/16 00:57:25;;;;;;;;;;;15.80;90.00;;;;;;700168;28;942;-37
2022/04/16 00:57:46;;;;;;;;;;;15.80;90.10;;;;;;700771;28;1038;-37
2022/04/16 00:58:07;;;;;;;;;;;15.80;90.00;;;;;;699225;28;1032;-37
2022/04/16 00:58:28;;;;;;;;;;;15.80;90.00;;;;;;697325;28;1022;-37
2022/04/16 00:58:48;;;;;;;;;;;15.80;90.00;;;;;;697698;28;1308;-37
2022/04/16 00:59:09;;;;;;;;;;;15.80;90.00;;;;;;700072;28;1128;-37
2022/04/16 00:59:30;;;;;;;;;;;15.80;90.00;;;;;;700158;28;1062;-37
2022/04/16 00:59:51;;;;;;;;;;;15.80;90.00;;;;;;697681;28;1028;-37
2022/04/16 01:00:13;;;;;;;;;;;15.80;90.00;;;;;;700046;28;989;-37
2022/04/16 01:00:34;;;;;;;;;;;15.80;90.00;;;;;;700027;28;1914;-37
2022/04/16 01:00:55;;;;;;;;;;;15.80;89.90;;;;;;700154;28;1064;-37
2022/04/16 01:01:16;;;;;;;;;;;15.80;90.00;;;;;;700064;28;938;-38
2022/04/16 01:01:36;;;;;;;;;;;15.80;89.90;;;;;;700241;28;973;-37
2022/04/16 01:01:58;;;;;;;;;;;15.80;90.00;;;;;;700228;28;987;-37
2022/04/16 01:02:20;;;;;;;;;;;15.80;90.00;;;;;;700241;28;1014;-37
2022/04/16 01:02:42;;;;;;;;;;;15.80;90.00;;;;;;700224;28;1042;-36
2022/04/16 01:03:03;;;;;;;;;;;15.80;90.00;;;;;;700289;28;974;-37
2022/04/16 01:03:25;;;;;;;;;;;15.80;90.00;;;;;;700317;28;1069;-37
2022/04/16 01:03:47;;;;;;;;;;;15.80;90.00;;;;;;700240;28;1123;-37
2022/04/16 01:04:07;;;;;;;;;;;15.80;90.00;;;;;;700299;28;1014;-37
2022/04/16 01:04:28;;;;;;;;;;;15.70;89.90;;;;;;700149;28;1064;-37
2022/04/16 01:04:49;;;;;;;;;;;15.80;89.80;;;;;;700229;28;1042;-37
2022/04/16 01:05:12;;;;;;;;;;;15.80;89.90;;;;;;700280;28;960;-37
2022/04/16 01:05:33;;;;;;;;;;;15.80;89.90;;;;;;700204;28;1028;-37
2022/04/16 01:05:55;;;;;;;;;;;15.80;89.80;;;;;;700211;28;1112;-37
2022/04/16 01:06:16;;;;;;;;;;;15.80;89.70;;;;;;700343;28;1063;-38
2022/04/16 01:06:37;;;;;;;;;;;15.80;89.70;;;;;;700296;28;1022;-37
2022/04/16 01:06:58;;;;;;;;;;;15.90;89.90;;;;;;700259;28;985;-37
2022/04/16 01:07:22;;;;;;;;;;;15.90;89.80;;;;;;700237;28;1066;-37
2022/04/16 01:07:52;;;;;;;;;;;15.90;89.70;;;;;;700121;28;1057;-37
2022/04/16 01:08:13;;;;;;;;;;;15.90;89.70;;;;;;700081;28;1048;-37
2022/04/16 01:08:33;;;;;;;;;;;15.90;89.60;;;;;;700058;28;998;-37
2022/04/16 01:08:54;;;;;;;;;;;15.90;89.60;;;;;;700043;28;1026;-37
2022/04/16 01:09:15;;;;;;;;;;;15.90;89.50;;;;;;700026;28;1098;-37
2022/04/16 01:09:36;;;;;;;;;;;15.90;89.50;;;;;;700191;28;1090;-37
2022/04/16 01:09:57;;;;;;;;;;;15.90;89.50;;;;;;700345;28;1035;-37
2022/04/16 01:10:18;;;;;;;;;;;15.90;89.50;;;;;;700185;28;1084;-37
2022/04/16 01:10:39;;;;;;;;;;;15.90;89.40;;;;;;700117;28;1018;-37
2022/04/16 01:10:59;;;;;;;;;;;15.90;89.40;;;;;;700048;28;998;-37
2022/04/16 01:11:20;;;;;;;;;;;16.00;89.40;;;;;;699997;28;1131;-37
2022/04/16 01:11:43;;;;;;;;;;;15.90;89.30;;;;;;700110;28;1058;-37
2022/04/16 01:12:04;;;;;;;;;;;15.90;89.30;;;;;;700086;28;1082;-37
2022/04/16 01:12:26;;;;;;;;;;;16.00;89.40;;;;;;700009;28;1180;-37
2022/04/16 01:12:47;;;;;;;;;;;16.00;89.30;;;;;;700186;28;1020;-37
2022/04/16 01:13:08;;;;;;;;;;;16.00;89.30;;;;;;700068;28;953;-37
2022/04/16 01:13:29;;;;;;;;;;;16.00;89.20;;;;;;700264;28;1332;-37
2022/04/16 01:13:50;;;;;;;;;;;16.00;89.10;;;;;;700222;28;1115;-37
2022/04/16 01:14:11;;;;;;;;;;;16.00;89.20;;;;;;700239;28;1027;-37
2022/04/16 01:14:32;;;;;;;;;;;16.00;89.30;;;;;;700259;28;1049;-37
2022/04/16 01:14:53;;;;;;;;;;;16.00;89.30;;;;;;700275;28;1011;-37
2022/04/16 01:15:14;;;;;;;;;;;15.90;89.20;;;;;;700193;28;977;-37
2022/04/16 01:15:36;;;;;;;;;;;16.00;89.20;;;;;;700235;28;1019;-38
2022/04/16 01:15:56;;;;;;;;;;;15.90;89.20;;;;;;700235;28;1108;-37
2022/04/16 01:16:17;;;;;;;;;;;16.00;89.30;;;;;;700333;28;967;-38
2022/04/16 01:16:38;;;;;;;;;;;16.00;89.20;;;;;;700197;28;1023;-37
2022/04/16 01:16:59;;;;;;;;;;;16.00;89.10;;;;;;700318;28;937;-37
2022/04/16 01:17:19;;;;;;;;;;;16.00;89.20;;;;;;700143;28;1237;-37
2022/04/16 01:17:40;;;;;;;;;;;16.00;89.10;;;;;;700264;28;899;-37
2022/04/16 01:18:05;;;;;;;;;;;16.00;89.10;;;;;;700250;28;1200;-37
2022/04/16 01:18:26;;;;;;;;;;;16.00;89.20;;;;;;700314;28;1955;-36
2022/04/16 01:18:47;;;;;;;;;;;16.00;89.00;;;;;;700138;28;1171;-37
2022/04/16 01:19:08;;;;;;;;;;;16.00;88.90;;;;;;700320;28;1018;-38
2022/04/16 01:19:29;;;;;;;;;;;16.00;89.20;;;;;;700134;28;977;-37
2022/04/16 01:19:49;;;;;;;;;;;16.00;89.20;;;;;;700319;28;848;-37
2022/04/16 01:20:10;;;;;;;;;;;16.00;89.20;;;;;;700186;28;1047;-37
2022/04/16 01:20:33;;;;;;;;;;;15.90;89.00;;;;;;700267;28;1971;-37
2022/04/16 01:20:55;;;;;;;;;;;16.00;89.10;;;;;;699979;28;1056;-37
2022/04/16 01:21:17;;;;;;;;;;;16.00;89.00;;;;;;699987;28;1003;-37
2022/04/16 01:21:39;;;;;;;;;;;16.00;89.00;;;;;;699867;28;1058;-38
2022/04/16 01:22:00;;;;;;;;;;;16.00;89.10;;;;;;702807;28;1066;-37
2022/04/16 01:22:24;;;;;;;;;;;16.00;88.90;;;;;;702824;28;998;-37
2022/04/16 01:22:46;;;;;;;;;;;15.90;89.00;;;;;;701766;28;1972;-37
2022/04/16 01:23:07;;;;;;;;;;;15.90;89.10;;;;;;702856;28;1010;-37
2022/04/16 01:24:29;;;;;;;;;;;15.90;89.00;;;;;;699938;28;1500;-37
2022/04/16 01:24:49;;;;;;;;;;;15.90;89.00;;;;;;700293;28;1063;-37
2022/04/16 01:25:10;;;;;;;;;;;15.90;89.10;;;;;;700146;28;1011;-37
2022/04/16 01:25:33;;;;;;;;;;;15.90;88.90;;;;;;700186;28;1095;-37
2022/04/16 01:25:56;;;;;;;;;;;15.90;89.20;;;;;;700219;28;1302;-37
2022/04/16 01:26:17;;;;;;;;;;;15.90;89.20;;;;;;700281;28;1048;-37
2022/04/16 01:26:38;;;;;;;;;;;15.90;89.00;;;;;;700065;28;1031;-37
2022/04/16 01:26:58;;;;;;;;;;;15.90;89.00;;;;;;700206;28;1082;-37
2022/04/16 01:27:19;;;;;;;;;;;15.90;89.10;;;;;;700265;28;1027;-37
2022/04/16 01:27:43;;;;;;;;;;;15.90;89.00;;;;;;700208;28;971;-37
2022/04/16 01:28:04;;;;;;;;;;;15.90;88.90;;;;;;700180;28;1024;-37
2022/04/16 01:28:25;;;;;;;;;;;15.90;89.00;;;;;;700158;28;1033;-38
2022/04/16 01:28:46;;;;;;;;;;;15.90;88.80;;;;;;700294;28;991;-37
2022/04/16 01:29:07;;;;;;;;;;;15.90;89.50;;;;;;700093;28;1007;-38
2022/04/16 01:29:28;;;;;;;;;;;15.90;89.00;;;;;;699836;28;992;-37
2022/04/16 01:29:50;;;;;;;;;;;15.90;88.90;;;;;;700163;28;1232;-37
2022/04/16 01:30:11;;;;;;;;;;;15.90;88.80;;;;;;702781;28;1014;-37
2022/04/16 01:30:32;;;;;;;;;;;15.90;88.80;;;;;;702818;28;1067;-37
2022/04/16 01:30:53;;;;;;;;;;;15.90;88.90;;;;;;697332;28;1119;-37
2022/04/16 01:31:14;;;;;;;;;;;15.90;88.80;;;;;;700119;28;1081;-37
2022/04/16 01:31:34;;;;;;;;;;;15.90;88.80;;;;;;700052;28;937;-37
2022/04/16 01:31:55;;;;;;;;;;;15.90;88.80;;;;;;699987;28;1014;-37
2022/04/16 01:32:16;;;;;;;;;;;15.90;88.80;;;;;;700040;28;1060;-37
2022/04/16 01:32:37;;;;;;;;;;;15.90;88.90;;;;;;700924;28;1010;-37
2022/04/16 01:32:57;;;;;;;;;;;15.90;88.80;;;;;;702305;28;1010;-37
2022/04/16 01:33:18;;;;;;;;;;;15.90;88.80;;;;;;699869;28;1017;-37
2022/04/16 01:33:39;;;;;;;;;;;15.90;88.80;;;;;;700039;28;568;-38
2022/04/16 01:34:00;;;;;;;;;;;15.90;88.80;;;;;;700026;28;1049;-37
2022/04/16 01:34:21;;;;;;;;;;;15.90;88.80;;;;;;697290;28;1074;-37
2022/04/16 01:34:42;;;;;;;;;;;15.80;88.90;;;;;;697691;28;1039;-37
2022/04/16 01:35:05;;;;;;;;;;;15.80;88.80;;;;;;697188;28;1004;-37
2022/04/16 01:35:26;;;;;;;;;;;15.80;88.90;;;;;;697148;28;966;-37
2022/04/16 01:35:48;;;;;;;;;;;15.80;88.80;;;;;;697262;28;710;-37
2022/04/16 01:36:09;;;;;;;;;;;15.80;88.80;;;;;;698078;28;1026;-36
2022/04/16 01:36:31;;;;;;;;;;;15.80;88.90;;;;;;702784;28;1066;-37
2022/04/16 01:36:52;;;;;;;;;;;15.80;89.00;;;;;;700102;28;1055;-37
2022/04/16 01:37:13;;;;;;;;;;;15.80;89.00;;;;;;699994;28;478;-37
2022/04/16 01:37:35;;;;;;;;;;;15.80;89.10;;;;;;699940;28;970;-37
2022/04/16 01:37:55;;;;;;;;;;;15.70;89.00;;;;;;700836;28;762;-37
2022/04/16 01:38:16;;;;;;;;;;;15.80;89.00;;;;;;701877;28;984;-37
2022/04/16 01:38:37;;;;;;;;;;;15.70;89.00;;;;;;698068;28;1005;-37
2022/04/16 01:38:58;;;;;;;;;;;15.70;89.10;;;;;;700001;28;988;-37
2022/04/16 01:39:18;;;;;;;;;;;15.70;89.00;;;;;;700011;28;1039;-37
2022/04/16 01:39:39;;;;;;;;;;;15.80;89.10;;;;;;699930;28;1055;-38
2022/04/16 01:40:04;;;;;;;;;;;15.80;89.00;;;;;;700030;28;1090;-37
2022/04/16 01:40:25;;;;;;;;;;;15.80;89.00;;;;;;703561;28;965;-37
2022/04/16 01:40:46;;;;;;;;;;;15.80;88.90;;;;;;705517;28;1917;-37
2022/04/16 01:41:07;;;;;;;;;;;15.80;88.90;;;;;;705586;28;1019;-37
2022/04/16 01:41:28;;;;;;;;;;;15.80;88.80;;;;;;705549;28;1022;-37
2022/04/16 01:41:49;;;;;;;;;;;15.80;88.70;;;;;;705681;28;1060;-38
2022/04/16 01:42:10;;;;;;;;;;;15.90;88.70;;;;;;704155;28;953;-37
2022/04/16 01:42:32;;;;;;;;;;;15.90;88.70;;;;;;700163;28;1085;-37
2022/04/16 01:42:56;;;;;;;;;;;15.90;88.60;;;;;;700154;28;1135;-37
2022/04/16 01:43:16;;;;;;;;;;;15.90;88.60;;;;;;700157;28;1013;-37
2022/04/16 01:43:37;;;;;;;;;;;15.90;88.50;;;;;;700119;28;1013;-37
2022/04/16 01:43:58;;;;;;;;;;;15.90;88.50;;;;;;700103;28;1008;-37
2022/04/16 01:44:20;;;;;;;;;;;15.90;88.50;;;;;;700030;28;1124;-37
2022/04/16 01:44:43;;;;;;;;;;;15.90;88.50;;;;;;700131;28;1019;-37
2022/04/16 01:45:05;;;;;;;;;;;15.90;88.50;;;;;;700025;28;1026;-37
2022/04/16 01:45:26;;;;;;;;;;;15.80;88.40;;;;;;700083;28;1123;-37
2022/04/16 01:45:49;;;;;;;;;;;15.90;88.50;;;;;;700182;28;1042;-37
2022/04/16 01:46:10;;;;;;;;;;;15.90;88.50;;;;;;700120;28;1100;-37
2022/04/16 01:46:31;;;;;;;;;;;15.90;88.40;;;;;;700071;28;1062;-37
2022/04/16 01:46:52;;;;;;;;;;;15.90;88.30;;;;;;702663;28;1067;-37
2022/04/16 01:47:13;;;;;;;;;;;15.90;88.40;;;;;;702676;28;973;-37
2022/04/16 01:47:36;;;;;;;;;;;15.80;88.40;;;;;;702836;28;1050;-37
2022/04/16 01:47:59;;;;;;;;;;;15.80;88.50;;;;;;702682;28;1024;-37
2022/04/16 01:48:21;;;;;;;;;;;15.90;88.30;;;;;;699810;28;1054;-37
2022/04/16 01:48:41;;;;;;;;;;;15.90;88.50;;;;;;699812;28;1031;-37
2022/04/16 01:49:02;;;;;;;;;;;15.80;88.40;;;;;;699897;28;1035;-37
2022/04/16 01:49:24;;;;;;;;;;;15.80;88.40;;;;;;699953;28;994;-36
2022/04/16 01:49:46;;;;;;;2.50;1.20;;;15.80;88.30;;;;;;699740;28;1101;-37
2022/04/16 01:50:08;;;;;;;2.47;1.10;;;15.80;88.40;;;;;;698931;28;8045;-37
2022/04/16 01:50:30;;;;;;;2.08;1.10;;;15.80;88.60;;;;;;693689;28;1131;-37
2022/04/16 01:50:51;;;;;;;2.10;1.15;;;15.70;88.70;;;;;;693674;28;1040;-37
2022/04/16 01:51:12;;;;;;;2.40;1.10;;;15.70;88.60;;;;;;693741;28;999;-37
2022/04/16 01:51:33;;;;;;;1.88;1.10;;;15.80;88.70;;;;;;693783;28;962;-37
2022/04/16 01:51:57;;;;;;;1.65;1.02;;;15.80;88.50;;;;;;693727;28;1094;-37
2022/04/16 01:52:18;;;;;;;2.20;1.20;;;15.70;88.40;;;;;;693712;28;31441;-37
2022/04/16 01:52:39;;;;;;;3.05;1.30;;;15.80;88.60;;;;;;693750;28;1031;-37
2022/04/16 01:53:00;;;;;;;1.92;1.02;;;15.80;88.60;;;;;;693719;28;1086;-37
2022/04/16 01:53:21;;;;;;;2.10;1.08;;;15.80;88.50;;;;;;693799;28;1027;-37
2022/04/16 01:53:43;;;;;;;2.13;1.17;;;15.70;88.30;;;;;;693747;28;1137;-37
2022/04/16 01:54:03;;;;;;;1.48;0.95;;;15.80;88.40;;;;;;694852;28;1144;-37
2022/04/16 01:54:24;;;;;;;1.95;0.95;;;15.70;88.40;;;;;;697155;28;1081;-37
2022/04/16 01:54:45;;;;;;;2.30;1.25;;;15.70;88.40;;;;;;699265;28;1121;-37
2022/04/16 01:55:07;;;;;;;1.95;1.10;;;15.70;88.40;;;;;;699185;28;958;-37
2022/04/16 01:55:28;;;;;;;1.88;1.10;;;15.70;88.40;;;;;;699326;28;872;-37
2022/04/16 01:55:49;;;;;;;2.33;1.13;;;15.70;88.50;;;;;;699206;28;966;-37
2022/04/16 01:56:11;;;;;;;3.00;1.27;;;15.70;88.40;;;;;;699272;28;1091;-38
2022/04/16 01:56:32;;;;;;;2.17;1.45;;;15.70;88.20;;;;;;699231;28;1007;-37
2022/04/16 01:56:52;;;;;;;2.05;1.15;;;15.70;88.40;;;;;;699100;28;984;-37
2022/04/16 01:57:14;;;;;;;2.08;1.10;;;15.70;88.40;;;;;;699194;28;1086;-37
2022/04/16 01:57:34;;;;;;;1.90;1.10;;;15.70;88.30;;;;;;699284;28;1081;-38
2022/04/16 01:57:55;;;;;;;2.10;0.97;;;15.70;88.40;;;;;;699194;28;1026;-37
2022/04/16 01:58:16;;;;;;;1.33;0.90;;;15.70;88.30;;;;;;696535;28;1925;-37
2022/04/16 01:58:38;;;;;;;;;;;15.70;88.10;;;;;;696878;28;1291;-37
2022/04/16 01:58:59;;;;;;;;;;;15.70;88.20;;;;;;697000;28;994;-37
2022/04/16 01:59:20;;;;;;;;;;;15.70;88.00;;;;;;697036;28;1097;-37
2022/04/16 01:59:40;;;;;;;;;;;15.80;88.00;;;;;;697125;28;994;-37
2022/04/16 02:00:01;;;;;;;;;;;15.70;88.00;;;;;;697620;28;979;-37
2022/04/16 02:00:23;;;;;;;;;;;15.70;88.00;;;;;;699811;28;1010;-37
2022/04/16 02:00:43;;;;;;;;;;;15.70;87.90;;;;;;699767;28;1984;-38
2022/04/16 02:01:05;;;;;;;;;;;15.70;88.00;;;;;;699800;28;1042;-36
2022/04/16 02:01:25;;;;;;;;;;;15.70;88.10;;;;;;699808;28;1019;-37
2022/04/16 02:01:47;;;;;;;;;;;15.60;88.10;;;;;;699864;28;885;-37
2022/04/16 02:02:08;;;;;;;;;;;15.60;88.30;;;;;;699678;28;1036;-37
2022/04/16 02:02:29;;;;;;;;;;;15.60;88.20;;;;;;699902;28;1114;-37
2022/04/16 02:02:50;;;;;;;;;;;15.60;88.20;;;;;;699887;28;991;-37
2022/04/16 02:03:11;;;;;;;;;;;15.60;88.40;;;;;;699775;28;1086;-37
2022/04/16 02:03:33;;;;;;;;;;;15.60;88.30;;;;;;699856;28;958;-37
2022/04/16 02:03:53;;;;;;;;;;;15.60;88.30;;;;;;699880;28;1093;-37
2022/04/16 02:04:14;;;;;;;;;;;15.60;88.40;;;;;;699673;28;1025;-37
2022/04/16 02:04:35;;;;;;;;;;;15.60;88.50;;;;;;699852;28;1021;-37
2022/04/16 02:04:56;;;;;;;;;;;15.60;88.40;;;;;;699867;28;1085;-37
2022/04/16 02:05:17;;;;;;;;;;;15.60;88.30;;;;;;699802;28;965;-37
2022/04/16 02:05:38;;;;;;;;;;;15.60;88.20;;;;;;699851;28;1058;-37
2022/04/16 02:05:59;;;;;;;;;;;15.60;88.10;;;;;;699895;28;970;-37
2022/04/16 02:06:19;;;;;;;;;;;15.60;88.20;;;;;;699804;28;1062;-37
2022/04/16 02:06:40;;;;;;;;;;;15.60;88.20;;;;;;699731;28;970;-38
2022/04/16 02:07:01;;;;;;;;;;;15.60;88.20;;;;;;699891;28;1911;-37
2022/04/16 02:07:22;;;;;;;;;;;15.60;88.10;;;;;;699603;28;1010;-37
2022/04/16 02:07:42;;;;;;;;;;;15.60;88.10;;;;;;697073;28;1055;-37
2022/04/16 02:08:04;;;;;;;;;;;15.60;88.10;;;;;;694195;28;981;-37
2022/04/16 02:08:25;;;;;;;;;;;15.70;87.90;;;;;;694349;28;969;-38